Rechercher aéroport 
image banner adimage banner adimage banner ad
image banner ad

KMOD - Modesto City-Co-Harry Sham Fld

Situé à Modesto, United States

ICAO - MOD, IATA - MOD

Données fournies par Airmate  

Information générale

Coordonnées: N37°37'33" W120°57'16"
Élévation : 99 feet MSL.
Variation magnétique : 16° East
Voir autres Aéroports à California

Données opérationnelles

Special qualification required
Heure actuelle UTC:
Heure actuelle locale:
Météo
METAR: KMOD 251153Z AUTO 35006KT 10SM CLR 21/06 A2986 RMK AO2 SLP111 T02110061 10272 20211 50002
TAF: KMOD 251120Z 2512/2612 33008KT P6SM SCT250
Voir NOTAMs / SUP AIP / TFR affectant cet aéroport [VIEW]
Fréquences de communication: [VIEW]

Pistes:

Identifiant RWYQFULongueur (ft)Largeur (ft)SurfaceLDA (ft)
10R124°3464100ASPH3464
28L304°3464100ASPH3464
10L124°5904150ASPH5904
28R304°5904150ASPH5904

Coordonnées de l'aéroport

Adresse: Modesto United States

Vue satellite de KMOD